Time;durP1;ratioP1;P1;durP2;ratioP2;P2;SDS_P1;SDS_P2;PMS_P1;PMS_P2;Temp;Humidity;BMP_temperature;BMP_pressure;BME280_temperature;BME280_humidity;BME280_pressure;Samples;Min_cycle;Max_cycle;Signal;HPM_P1;HPM_P2
2022/03/21 00:00:27;;;;;;;89.40;49.80;;;4.50;99.90;;;;;;5034227;28;20053;-55
2022/03/21 00:02:54;;;;;;;94.55;50.17;;;4.50;99.90;;;;;;5033728;28;20102;-55
2022/03/21 00:05:19;;;;;;;83.38;47.72;;;4.50;99.90;;;;;;5034474;28;20041;-55
2022/03/21 00:07:45;;;;;;;87.38;48.55;;;4.50;99.90;;;;;;5034809;28;20416;-55
2022/03/21 00:10:10;;;;;;;94.10;51.33;;;4.50;99.90;;;;;;5024669;28;20588;-53
2022/03/21 00:12:39;;;;;;;97.13;52.03;;;4.60;99.90;;;;;;5033507;28;20047;-55
2022/03/21 00:15:06;;;;;;;93.13;51.80;;;4.60;99.90;;;;;;5034836;28;20037;-55
2022/03/21 00:17:33;;;;;;;97.57;53.03;;;4.60;99.90;;;;;;5034683;28;20501;-55
2022/03/21 00:19:59;;;;;;;91.88;50.30;;;4.70;99.90;;;;;;5031564;28;20414;-55
2022/03/21 00:22:24;;;;;;;95.43;51.67;;;4.70;99.90;;;;;;5023848;28;20091;-55
2022/03/21 00:24:50;;;;;;;93.28;51.22;;;4.70;99.90;;;;;;5021726;28;20033;-55
2022/03/21 00:27:15;;;;;;;86.75;49.83;;;4.70;99.90;;;;;;5035074;28;20036;-55
2022/03/21 00:29:41;;;;;;;92.35;50.50;;;4.70;99.90;;;;;;5045266;28;20485;-54
2022/03/21 00:32:07;;;;;;;93.88;51.22;;;4.70;99.90;;;;;;5037412;28;20094;-55
2022/03/21 00:34:33;;;;;;;95.63;50.95;;;4.70;99.90;;;;;;5030221;28;20052;-54
2022/03/21 00:36:58;;;;;;;96.35;50.47;;;4.70;99.90;;;;;;5013869;28;20041;-55
2022/03/21 00:39:24;;;;;;;93.28;51.03;;;4.60;99.90;;;;;;5029315;28;20037;-53
2022/03/21 00:41:51;;;;;;;74.82;44.65;;;4.60;99.90;;;;;;5014576;28;20085;-54
2022/03/21 00:44:16;;;;;;;75.82;45.90;;;4.50;99.90;;;;;;5014060;28;20085;-56
2022/03/21 00:46:42;;;;;;;81.38;46.20;;;4.50;99.90;;;;;;5046449;28;20097;-55
2022/03/21 00:49:11;;;;;;;88.70;49.28;;;4.40;99.90;;;;;;5028393;28;20045;-55
2022/03/21 00:51:38;;;;;;;86.43;48.78;;;4.40;99.90;;;;;;5035236;28;20045;-55
2022/03/21 00:54:03;;;;;;;89.80;48.20;;;4.50;99.90;;;;;;5034248;28;20509;-55
2022/03/21 00:56:28;;;;;;;86.13;49.85;;;4.50;99.90;;;;;;5035292;28;20037;-55
2022/03/21 00:58:54;;;;;;;93.28;49.95;;;4.50;99.90;;;;;;5033726;28;20034;-55
2022/03/21 01:01:20;;;;;;;89.40;49.40;;;4.50;99.90;;;;;;5022648;28;20053;-55
2022/03/21 01:03:45;;;;;;;98.00;53.78;;;4.50;99.90;;;;;;5015014;28;20045;-54
2022/03/21 01:06:11;;;;;;;94.05;52.35;;;4.60;99.90;;;;;;5023170;28;20037;-55
2022/03/21 01:08:36;;;;;;;98.57;52.20;;;4.60;99.90;;;;;;5042416;28;20037;-55
2022/03/21 01:11:02;;;;;;;97.65;52.05;;;4.70;99.90;;;;;;5033246;28;20053;-55
2022/03/21 01:13:28;;;;;;;98.68;53.05;;;4.60;99.90;;;;;;5031190;28;20042;-55
2022/03/21 01:15:53;;;;;;;97.13;52.40;;;4.60;99.90;;;;;;5013448;28;20084;-55
2022/03/21 01:18:21;;;;;;;92.78;51.95;;;4.60;99.90;;;;;;5011948;28;20042;-55
2022/03/21 01:20:47;;;;;;;93.13;52.40;;;4.60;99.90;;;;;;5020016;28;20068;-56
2022/03/21 01:23:12;;;;;;;90.47;50.67;;;4.70;99.90;;;;;;5013808;28;20529;-55
2022/03/21 01:25:38;;;;;;;76.43;45.13;;;4.60;99.90;;;;;;5025325;28;20041;-55
2022/03/21 01:28:04;;;;;;;83.93;47.15;;;4.50;99.90;;;;;;5030929;28;20033;-54
2022/03/21 01:30:30;;;;;;;85.80;47.90;;;4.50;99.90;;;;;;5022589;28;20042;-57
2022/03/21 01:32:55;;;;;;;83.65;47.72;;;4.50;99.90;;;;;;5013671;28;20393;-55
2022/03/21 01:35:21;;;;;;;90.85;50.03;;;4.40;99.90;;;;;;5030043;28;20045;-55
2022/03/21 01:37:47;;;;;;;82.72;47.28;;;4.40;99.90;;;;;;5023707;28;20037;-55
2022/03/21 01:40:15;;;;;;;93.78;50.83;;;4.30;99.90;;;;;;5027332;28;20099;-55
2022/03/21 01:42:43;;;;;;;86.85;49.40;;;4.30;99.90;;;;;;5033559;28;20075;-55
2022/03/21 01:45:10;;;;;;;98.45;51.80;;;4.20;99.90;;;;;;5033039;28;20041;-55
2022/03/21 01:47:35;;;;;;;89.32;51.55;;;4.20;99.90;;;;;;5033932;28;20080;-55
2022/03/21 01:50:03;;;;;;;83.55;47.30;;;4.20;99.90;;;;;;5030290;28;20042;-55
2022/03/21 01:52:29;;;;;;;91.15;49.72;;;4.20;99.90;;;;;;5014358;28;20048;-55
2022/03/21 01:57:39;;;;;;;91.03;48.90;;;4.20;99.90;;;;;;5030625;28;20084;-55
2022/03/21 02:00:06;;;;;;;90.70;49.00;;;4.10;99.90;;;;;;5025223;28;20432;-55
2022/03/21 02:02:33;;;;;;;92.07;49.72;;;4.10;99.90;;;;;;5032278;28;20143;-55
2022/03/21 02:04:58;;;;;;;89.50;49.55;;;4.10;99.90;;;;;;5031518;28;20102;-55
2022/03/21 02:07:25;;;;;;;93.95;49.40;;;4.10;99.90;;;;;;5019963;28;20545;-55
2022/03/21 02:09:50;;;;;;;88.18;48.17;;;4.10;99.90;;;;;;5019768;28;20041;-55
2022/03/21 02:12:17;;;;;;;84.30;45.20;;;4.00;99.90;;;;;;5031390;28;20119;-55
2022/03/21 02:14:43;;;;;;;77.20;44.65;;;4.00;99.90;;;;;;5027157;28;20113;-55
2022/03/21 02:17:10;;;;;;;77.00;44.75;;;3.90;99.90;;;;;;5031490;28;20693;-55
2022/03/21 02:19:38;;;;;;;90.40;48.88;;;3.90;99.90;;;;;;5027029;28;20041;-55
2022/03/21 02:22:19;;;;;;;80.47;44.55;;;3.90;99.90;;;;;;5028684;28;20045;-55
2022/03/21 02:25:03;;;;;;;79.80;46.30;;;3.90;99.90;;;;;;5028824;28;20053;-55
2022/03/21 02:27:30;;;;;;;72.63;41.97;;;3.90;99.90;;;;;;5028344;28;20525;-55
2022/03/21 02:29:57;;;;;;;76.88;42.08;;;3.80;99.90;;;;;;5013528;28;20073;-55
2022/03/21 02:32:23;;;;;;;81.38;44.60;;;3.80;99.90;;;;;;5013968;28;20069;-55
2022/03/21 02:34:49;;;;;;;85.30;44.88;;;3.80;99.90;;;;;;5030244;28;20480;-55
2022/03/21 02:37:16;;;;;;;84.00;45.53;;;3.80;99.90;;;;;;5030970;28;20120;-53
2022/03/21 02:39:44;;;;;;;81.18;45.25;;;3.80;99.90;;;;;;5021662;28;20049;-53
2022/03/21 02:42:09;;;;;;;91.20;46.85;;;3.90;99.90;;;;;;5019904;28;20034;-53
2022/03/21 02:44:36;;;;;;;80.70;44.85;;;3.90;99.90;;;;;;5039450;28;20501;-53
2022/03/21 02:47:03;;;;;;;85.38;42.42;;;4.00;99.90;;;;;;5031797;28;20030;-53
2022/03/21 02:49:29;;;;;;;84.65;44.40;;;4.00;99.90;;;;;;5031718;28;20163;-53
2022/03/21 02:51:57;;;;;;;85.18;45.22;;;4.00;99.90;;;;;;5031210;28;20064;-53
2022/03/21 02:54:24;;;;;;;92.03;45.58;;;4.00;99.90;;;;;;5033614;28;20041;-53
2022/03/21 02:56:50;;;;;;;83.22;45.17;;;4.00;99.90;;;;;;5031906;28;20048;-53
2022/03/21 02:59:18;;;;;;;82.30;44.13;;;4.00;99.90;;;;;;5012450;28;20033;-53
2022/03/21 03:01:44;;;;;;;74.05;41.58;;;4.00;99.90;;;;;;5012052;28;20042;-53
2022/03/21 03:04:10;;;;;;;83.43;43.95;;;3.90;99.90;;;;;;5013541;28;20577;-53
2022/03/21 03:06:39;;;;;;;85.50;41.95;;;3.90;99.90;;;;;;5033656;28;20444;-52
2022/03/21 03:09:08;;;;;;;75.78;42.28;;;3.90;99.90;;;;;;5034974;28;20045;-53
2022/03/21 03:11:38;;;;;;;72.78;40.58;;;3.90;99.90;;;;;;5034938;28;20575;-52
2022/03/21 03:14:04;;;;;;;79.38;40.38;;;3.90;99.90;;;;;;5035242;28;20052;-53
2022/03/21 03:16:30;;;;;;;77.35;42.35;;;3.90;99.90;;;;;;5034294;28;20044;-50
2022/03/21 03:18:55;;;;;;;69.90;39.03;;;3.80;99.90;;;;;;5033520;28;20033;-53
2022/03/21 03:21:24;;;;;;;75.93;40.72;;;3.80;99.90;;;;;;5035064;28;20456;-52
2022/03/21 03:23:51;;;;;;;73.18;40.80;;;3.80;99.90;;;;;;5034999;28;20129;-53
2022/03/21 03:26:17;;;;;;;70.93;37.90;;;3.70;99.90;;;;;;5034733;28;20065;-50
2022/03/21 03:28:43;;;;;;;74.95;39.88;;;3.70;99.90;;;;;;5033948;28;20083;-52
2022/03/21 03:31:10;;;;;;;73.45;39.00;;;3.70;99.90;;;;;;5034547;28;20165;-53
2022/03/21 03:33:37;;;;;;;66.80;36.25;;;3.70;99.90;;;;;;5034233;28;20076;-53
2022/03/21 03:36:03;;;;;;;58.28;34.35;;;3.60;99.90;;;;;;5032347;28;20060;-53
2022/03/21 03:38:28;;;;;;;60.17;35.20;;;3.60;99.90;;;;;;5014910;28;20034;-53
2022/03/21 03:40:54;;;;;;;56.63;32.72;;;3.50;99.90;;;;;;5014852;28;20107;-53
2022/03/21 03:43:20;;;;;;;62.92;35.30;;;3.50;99.90;;;;;;5020636;28;20049;-53
2022/03/21 03:45:49;;;;;;;66.40;35.55;;;3.40;99.90;;;;;;5030105;28;20116;-53
2022/03/21 03:48:15;;;;;;;64.15;35.63;;;3.40;99.90;;;;;;5021620;28;20038;-53
2022/03/21 03:50:41;;;;;;;57.15;32.92;;;3.30;99.90;;;;;;5033573;28;20048;-53
2022/03/21 03:53:07;;;;;;;57.25;31.40;;;3.30;99.90;;;;;;5067147;22;20045;-54
2022/03/21 03:55:32;;;;;;;50.10;29.70;;;3.30;99.90;;;;;;5047330;28;20036;-53
2022/03/21 03:57:58;;;;;;;58.75;32.90;;;3.60;99.90;;;;;;5053679;28;20044;-54
2022/03/21 04:00:24;;;;;;;64.05;34.20;;;3.20;99.90;;;;;;5053977;28;20038;-55
2022/03/21 04:05:35;;;;;;;60.67;33.75;;;3.30;99.90;;;;;;5035109;28;20102;-54
2022/03/21 04:08:01;;;;;;;62.17;33.88;;;3.30;99.90;;;;;;5043268;28;20045;-53
2022/03/21 04:10:27;;;;;;;62.28;32.92;;;3.40;99.90;;;;;;5016196;28;20104;-53
2022/03/21 04:12:53;;;;;;;57.75;32.42;;;3.40;99.90;;;;;;5033588;28;20033;-53
2022/03/21 04:15:20;;;;;;;64.82;34.22;;;3.30;99.90;;;;;;5032737;28;20045;-53
2022/03/21 04:17:47;;;;;;;58.45;33.15;;;3.40;99.90;;;;;;5033815;28;20143;-54
2022/03/21 04:20:13;;;;;;;58.25;33.38;;;3.40;99.90;;;;;;5039589;28;20527;-53
2022/03/21 04:22:39;;;;;;;56.38;31.75;;;3.30;99.90;;;;;;5047185;28;20085;-53
2022/03/21 04:25:07;;;;;;;59.28;32.40;;;3.30;99.90;;;;;;5036832;28;20065;-52
2022/03/21 04:27:33;;;;;;;55.38;29.80;;;3.40;99.90;;;;;;5036819;28;20493;-50
2022/03/21 04:30:00;;;;;;;54.08;30.25;;;3.40;99.90;;;;;;5033572;28;20175;-52
2022/03/21 04:32:26;;;;;;;50.75;28.33;;;3.30;99.90;;;;;;5033947;28;20041;-54
2022/03/21 04:34:53;;;;;;;50.22;28.77;;;3.40;99.90;;;;;;5016047;28;20037;-54
2022/03/21 04:37:19;;;;;;;53.85;28.20;;;3.40;99.90;;;;;;5033226;28;20510;-54
2022/03/21 04:39:44;;;;;;;50.22;28.35;;;3.40;99.90;;;;;;5038501;28;20117;-53
2022/03/21 04:42:10;;;;;;;47.75;27.55;;;3.40;99.90;;;;;;5039328;28;20120;-53
2022/03/21 04:44:36;;;;;;;41.80;23.77;;;3.40;99.90;;;;;;5033319;28;20501;-52
2022/03/21 04:47:02;;;;;;;29.85;19.42;;;3.30;99.90;;;;;;5032596;28;20048;-53
2022/03/21 04:49:28;;;;;;;27.25;18.58;;;3.20;99.90;;;;;;5033643;28;20132;-52
2022/03/21 04:51:53;;;;;;;42.35;24.15;;;3.20;99.90;;;;;;5032982;28;20069;-52
2022/03/21 04:54:19;;;;;;;46.60;25.45;;;3.20;99.90;;;;;;5033109;28;20034;-49
2022/03/21 04:56:45;;;;;;;40.25;24.55;;;3.20;99.90;;;;;;5032729;28;20041;-49
2022/03/21 04:59:10;;;;;;;42.78;24.75;;;3.10;99.90;;;;;;5033319;28;20033;-53
2022/03/21 05:01:36;;;;;;;39.40;23.40;;;3.00;99.90;;;;;;5032777;28;20045;-53
2022/03/21 05:04:02;;;;;;;39.13;23.23;;;3.00;99.90;;;;;;5033094;28;20037;-52
2022/03/21 05:06:28;;;;;;;37.95;23.05;;;3.00;99.90;;;;;;5032695;28;20049;-52
2022/03/21 05:08:54;;;;;;;38.15;23.80;;;2.90;99.90;;;;;;5031462;28;20033;-57
2022/03/21 05:11:19;;;;;;;46.78;22.20;;;2.90;99.90;;;;;;5047619;28;20048;-51
2022/03/21 05:13:45;;;;;;;37.20;23.05;;;2.80;99.90;;;;;;5042052;28;20037;-53
2022/03/21 05:16:10;;;;;;;40.47;25.50;;;2.70;99.90;;;;;;5046900;28;20096;-52
2022/03/21 05:18:36;;;;;;;41.25;25.23;;;2.70;99.90;;;;;;5036470;28;20044;-50
2022/03/21 05:21:03;;;;;;;40.70;24.65;;;2.60;99.90;;;;;;5029641;28;20050;-53
2022/03/21 05:31:42;;;;;;;38.75;23.50;;;2.40;99.90;;;;;;5027778;28;20104;-53
2022/03/21 05:36:53;;;;;;;39.95;24.80;;;2.20;99.90;;;;;;5030984;28;20128;-53
2022/03/21 05:39:18;;;;;;;42.28;23.88;;;2.20;99.90;;;;;;5027077;28;20044;-54
2022/03/21 05:41:44;;;;;;;34.60;22.67;;;2.20;99.90;;;;;;5032144;28;20112;-53
2022/03/21 05:44:11;;;;;;;38.60;23.73;;;2.10;99.90;;;;;;5029609;28;20090;-53
2022/03/21 05:46:37;;;;;;;36.20;22.38;;;2.10;99.90;;;;;;5029558;28;20038;-53
2022/03/21 05:49:04;;;;;;;33.65;21.80;;;2.10;99.90;;;;;;5027960;28;20087;-53
2022/03/21 05:51:33;;;;;;;35.00;21.15;;;2.10;99.90;;;;;;5022819;28;20489;-52
2022/03/21 05:54:00;;;;;;;32.03;20.40;;;2.10;99.90;;;;;;5035691;28;20033;-54
2022/03/21 05:56:27;;;;;;;29.67;19.27;;;2.10;99.90;;;;;;5036612;28;20045;-53
2022/03/21 05:58:53;;;;;;;29.67;19.25;;;2.00;99.90;;;;;;5030638;28;20033;-54
2022/03/21 06:01:22;;;;;;;27.80;18.08;;;2.00;99.90;;;;;;5037020;28;20037;-52
2022/03/21 06:03:52;;;;;;;23.65;15.73;;;2.00;99.90;;;;;;5038209;28;20448;-51
2022/03/21 06:06:19;;;;;;;24.45;16.63;;;2.00;99.90;;;;;;5031407;28;20473;-52
2022/03/21 06:08:45;;;;;;;28.55;18.33;;;1.90;99.90;;;;;;5031619;28;20120;-53
2022/03/21 06:11:12;;;;;;;29.92;19.98;;;1.90;99.90;;;;;;5031464;28;20116;-54
2022/03/21 06:13:42;;;;;;;30.15;18.92;;;1.90;99.90;;;;;;5031289;28;20033;-53
2022/03/21 06:16:08;;;;;;;36.25;22.00;;;1.90;99.90;;;;;;5031968;28;20466;-53
2022/03/21 06:18:36;;;;;;;38.40;23.00;;;1.90;99.90;;;;;;5033676;28;20084;-54
2022/03/21 06:21:04;;;;;;;38.15;22.83;;;1.90;99.90;;;;;;5030333;28;20041;-54
2022/03/21 06:23:30;;;;;;;35.35;21.95;;;1.90;99.90;;;;;;5004210;28;20536;-54
2022/03/21 06:25:58;;;;;;;36.45;23.00;;;2.00;99.90;;;;;;5031137;28;20040;-50
2022/03/21 06:28:26;;;;;;;34.60;22.13;;;2.00;99.90;;;;;;5025723;28;20513;-53
2022/03/21 06:30:53;;;;;;;32.00;20.20;;;2.00;99.90;;;;;;5025019;28;20046;-53
2022/03/21 06:33:21;;;;;;;32.72;20.45;;;2.10;99.90;;;;;;5009899;28;20038;-53
2022/03/21 06:35:46;;;;;;;32.95;20.55;;;2.10;99.90;;;;;;5011250;28;20046;-54
2022/03/21 06:38:12;;;;;;;32.50;19.08;;;2.20;99.90;;;;;;5013260;28;20045;-54
2022/03/21 06:40:39;;;;;;;27.52;17.30;;;2.20;99.90;;;;;;5038103;28;20394;-54
2022/03/21 06:43:04;;;;;;;24.08;15.27;;;2.30;99.90;;;;;;5037073;28;20574;-52
2022/03/21 06:45:31;;;;;;;21.65;15.40;;;2.30;99.90;;;;;;5038282;28;20045;-53
2022/03/21 06:47:57;;;;;;;23.35;15.55;;;2.30;99.90;;;;;;5029855;28;20045;-52
2022/03/21 06:50:23;;;;;;;26.15;16.02;;;2.40;99.90;;;;;;5034798;28;20041;-53
2022/03/21 06:52:49;;;;;;;26.90;17.33;;;2.40;99.90;;;;;;5037887;28;20034;-53
2022/03/21 06:55:15;;;;;;;28.65;18.75;;;2.50;99.90;;;;;;5037932;28;20048;-54
2022/03/21 06:57:40;;;;;;;31.75;20.08;;;2.60;99.90;;;;;;5033585;28;20041;-52
2022/03/21 07:00:07;;;;;;;32.53;20.25;;;2.60;99.90;;;;;;5032658;28;20409;-53
2022/03/21 07:02:33;;;;;;;29.48;18.85;;;2.60;99.90;;;;;;5036599;28;20037;-53
2022/03/21 07:04:59;;;;;;;33.78;20.38;;;2.70;99.90;;;;;;5054263;28;20069;-53
2022/03/21 07:07:25;;;;;;;33.25;20.05;;;2.80;99.90;;;;;;5037925;28;20066;-50
2022/03/21 07:09:51;;;;;;;28.17;18.67;;;2.90;99.90;;;;;;5037809;28;20048;-53
2022/03/21 07:12:18;;;;;;;34.97;20.70;;;2.90;99.90;;;;;;5037752;28;20037;-54
2022/03/21 07:14:44;;;;;;;35.90;22.02;;;3.10;99.90;;;;;;5038288;28;20034;-53
2022/03/21 07:17:10;;;;;;;36.75;21.95;;;3.10;99.90;;;;;;5037892;28;20034;-52
2022/03/21 07:19:37;;;;;;;31.23;18.58;;;3.20;99.90;;;;;;5033424;28;20044;-52
2022/03/21 07:22:03;;;;;;;31.98;18.63;;;3.30;99.90;;;;;;5034763;28;20037;-53
2022/03/21 07:24:29;;;;;;;28.05;18.30;;;3.50;99.90;;;;;;5037604;28;20509;-54
2022/03/21 07:26:54;;;;;;;26.02;17.92;;;3.50;99.90;;;;;;5037801;28;20076;-53
2022/03/21 07:29:20;;;;;;;27.25;17.75;;;3.70;99.90;;;;;;5031506;28;20133;-53
2022/03/21 07:31:46;;;;;;;29.15;18.75;;;3.80;99.90;;;;;;5027717;28;20041;-53
2022/03/21 07:34:13;;;;;;;26.58;17.45;;;3.90;99.90;;;;;;5025263;28;20045;-53
2022/03/21 07:36:39;;;;;;;32.65;17.95;;;4.00;99.90;;;;;;5029744;28;20121;-53
2022/03/21 07:39:05;;;;;;;29.65;19.23;;;4.20;99.90;;;;;;5032842;28;20115;-54
2022/03/21 07:41:30;;;;;;;35.22;20.73;;;4.40;99.90;;;;;;5010955;28;20056;-51
2022/03/21 07:43:57;;;;;;;33.17;20.00;;;4.50;99.90;;;;;;5030058;28;20030;-54
2022/03/21 07:49:08;;;;;;;31.80;18.70;;;4.80;99.90;;;;;;5028665;28;20052;-54
2022/03/21 07:51:33;;;;;;;33.15;20.65;;;5.00;99.90;;;;;;5025696;28;20049;-53
2022/03/21 07:53:59;;;;;;;36.15;21.20;;;5.20;99.90;;;;;;5025687;28;20037;-52
2022/03/21 07:56:25;;;;;;;34.72;19.05;;;5.30;99.90;;;;;;5022026;28;20041;-53
2022/03/21 07:58:50;;;;;;;34.05;21.08;;;5.50;99.90;;;;;;5024088;28;20046;-54
2022/03/21 08:01:16;;;;;;;35.17;20.75;;;5.80;99.90;;;;;;5023919;28;20064;-54
2022/03/21 08:03:41;;;;;;;38.33;21.35;;;6.00;99.90;;;;;;5030013;28;20064;-53
2022/03/21 08:06:10;;;;;;;31.92;20.05;;;6.20;99.90;;;;;;5029293;28;20073;-53
2022/03/21 08:08:37;;;;;;;35.72;20.40;;;6.30;99.90;;;;;;5033606;28;20045;-54
2022/03/21 08:11:05;;;;;;;33.10;20.45;;;6.50;99.90;;;;;;5034039;28;20469;-53
2022/03/21 08:13:31;;;;;;;35.03;20.85;;;6.70;99.90;;;;;;5033123;28;20453;-53
2022/03/21 08:15:57;;;;;;;30.65;19.50;;;6.80;99.90;;;;;;5033128;28;20052;-54
2022/03/21 08:18:23;;;;;;;33.65;20.08;;;7.00;99.90;;;;;;5030204;28;20029;-54
2022/03/21 08:20:48;;;;;;;33.45;21.00;;;7.10;99.90;;;;;;5036296;28;20114;-53
2022/03/21 08:23:14;;;;;;;37.38;21.05;;;7.30;99.90;;;;;;5044340;28;20510;-54
2022/03/21 08:25:45;;;;;;;33.63;19.98;;;7.40;99.90;;;;;;5045126;28;20045;-54
2022/03/21 08:28:12;;;;;;;33.33;19.85;;;7.50;99.90;;;;;;5033437;28;20044;-53
2022/03/21 08:30:39;;;;;;;34.00;19.20;;;7.60;99.90;;;;;;5023347;28;20064;-54
2022/03/21 08:33:07;;;;;;;33.03;19.42;;;7.80;99.90;;;;;;5026237;28;20034;-54
2022/03/21 08:35:35;;;;;;;32.53;18.73;;;7.90;99.90;;;;;;5025566;28;20104;-54
2022/03/21 08:38:00;;;;;;;32.47;20.55;;;8.10;99.90;;;;;;5022397;28;20121;-55
2022/03/21 08:40:26;;;;;;;32.05;17.73;;;8.20;99.90;;;;;;5026478;28;20129;-54
2022/03/21 08:42:52;;;;;;;32.40;18.50;;;8.30;99.90;;;;;;5028932;28;20037;-54
2022/03/21 08:45:18;;;;;;;32.72;17.55;;;8.40;99.90;;;;;;5023544;28;20121;-54
2022/03/21 08:47:44;;;;;;;27.55;16.02;;;8.60;99.90;;;;;;5028469;28;20049;-54
2022/03/21 08:50:11;;;;;;;27.80;17.10;;;8.70;99.90;;;;;;5027530;28;20441;-54
2022/03/21 08:52:36;;;;;;;25.92;15.85;;;8.80;99.90;;;;;;5036141;28;20389;-54
2022/03/21 08:55:04;;;;;;;29.52;17.17;;;9.00;99.90;;;;;;5041529;28;20045;-54
2022/03/21 08:57:31;;;;;;;28.00;15.50;;;9.10;99.90;;;;;;5035490;28;20033;-53
2022/03/21 08:59:56;;;;;;;30.63;15.27;;;9.20;99.90;;;;;;5013713;28;20038;-54
2022/03/21 09:02:22;;;;;;;29.80;16.15;;;9.30;99.90;;;;;;5032203;28;20456;-54
2022/03/21 09:04:48;;;;;;;28.92;17.65;;;9.40;99.90;;;;;;5025718;28;20042;-54
2022/03/21 09:07:13;;;;;;;32.08;17.55;;;9.50;99.90;;;;;;5013546;28;20512;-54
2022/03/21 09:09:40;;;;;;;25.90;15.70;;;9.60;99.90;;;;;;5013231;28;20045;-54
2022/03/21 09:12:07;;;;;;;29.08;17.27;;;9.70;99.90;;;;;;5013241;28;20092;-54
2022/03/21 09:14:33;;;;;;;28.92;16.50;;;9.80;99.90;;;;;;5017530;28;20485;-54
2022/03/21 09:17:00;;;;;;;30.85;17.60;;;9.80;99.90;;;;;;5032963;28;20045;-55
2022/03/21 09:19:27;;;;;;;29.77;17.92;;;10.00;99.90;;;;;;5032828;28;20379;-54
2022/03/21 09:21:54;;;;;;;29.33;17.60;;;10.10;99.90;;;;;;5031313;28;20147;-54
2022/03/21 09:24:20;;;;;;;34.58;17.90;;;10.20;99.90;;;;;;5032147;28;20180;-53
2022/03/21 09:26:45;;;;;;;31.27;17.98;;;10.30;99.90;;;;;;5032413;28;20530;-53
2022/03/21 09:29:11;;;;;;;32.25;17.88;;;10.40;99.90;;;;;;5032617;28;20480;-53
2022/03/21 09:31:38;;;;;;;33.80;18.75;;;10.50;99.90;;;;;;5032160;28;20044;-54
2022/03/21 09:34:04;;;;;;;28.25;16.42;;;10.60;99.90;;;;;;5032623;28;20049;-54
2022/03/21 09:36:30;;;;;;;31.98;19.30;;;10.70;99.90;;;;;;5032396;28;20038;-56
2022/03/21 09:38:55;;;;;;;42.55;20.40;;;10.70;99.90;;;;;;5032524;28;20044;-54
2022/03/21 09:41:29;;;;;;;34.63;20.00;;;10.80;99.90;;;;;;5032370;28;20041;-54
2022/03/21 09:44:00;;;;;;;32.67;19.77;;;11.00;99.90;;;;;;5032200;28;20037;-55
2022/03/21 09:46:26;;;;;;;34.65;18.90;;;11.00;99.90;;;;;;5030301;28;20049;-53
2022/03/21 09:48:54;;;;;;;35.67;21.50;;;11.10;99.90;;;;;;5032174;28;20198;-54
2022/03/21 09:51:26;;;;;;;31.58;20.23;;;11.20;99.90;;;;;;5027324;28;20130;-53
2022/03/21 09:53:52;;;;;;;30.30;18.97;;;11.30;99.90;;;;;;5036768;28;20405;-54
2022/03/21 09:56:19;;;;;;;34.10;19.73;;;11.40;99.90;;;;;;5031256;28;20497;-55
2022/03/21 09:58:45;;;;;;;33.55;20.13;;;11.50;99.90;;;;;;5032191;28;20073;-54
2022/03/21 10:01:12;;;;;;;33.72;20.00;;;11.50;99.90;;;;;;5030886;28;20076;-53
2022/03/21 10:03:38;;;;;;;36.28;21.45;;;11.60;99.90;;;;;;5032369;28;20049;-55
2022/03/21 10:06:34;;;;;;;35.35;21.58;;;11.70;99.90;;;;;;5031291;28;20048;-54
2022/03/21 10:09:19;;;;;;;34.15;21.35;;;11.80;99.90;;;;;;5031954;28;20033;-54
2022/03/21 10:11:57;;;;;;;32.53;19.52;;;11.90;99.90;;;;;;5028621;28;20080;-54
2022/03/21 10:14:42;;;;;;;35.42;20.27;;;12.00;99.90;;;;;;5031047;28;20389;-55
2022/03/21 10:17:10;;;;;;;35.25;20.38;;;12.00;99.90;;;;;;5011991;28;20483;-55
2022/03/21 10:19:44;;;;;;;36.60;20.90;;;11.90;99.90;;;;;;5012054;28;20045;-55
2022/03/21 10:22:33;;;;;;;32.95;19.80;;;11.90;99.80;;;;;;5027307;28;20513;-55
2022/03/21 10:25:06;;;;;;;33.30;19.88;;;12.00;99.40;;;;;;5014389;28;20056;-55
2022/03/21 10:27:40;;;;;;;33.28;19.95;;;12.10;98.60;;;;;;5030680;28;20505;-55
2022/03/21 10:30:08;;;;;;;35.25;21.05;;;12.10;99.10;;;;;;5031651;28;20041;-55
2022/03/21 10:32:42;;;;;;;34.25;20.52;;;12.10;99.70;;;;;;5032864;28;20037;-54
2022/03/21 10:35:15;;;;;;;37.28;22.65;;;12.10;99.10;;;;;;5031767;28;20391;-54
2022/03/21 10:37:47;;;;;;;38.70;22.98;;;12.10;97.80;;;;;;5031899;28;20120;-56
2022/03/21 10:40:24;;;;;;;34.05;21.30;;;12.20;97.40;;;;;;5031009;28;20444;-55
2022/03/21 10:42:59;;;;;;;34.35;20.88;;;12.30;97.20;;;;;;5031898;28;20034;-53
2022/03/21 10:45:35;;;;;;;37.17;21.65;;;12.30;96.60;;;;;;5031610;28;20108;-54
2022/03/21 10:48:04;;;;;;;36.63;21.23;;;12.30;97.30;;;;;;5031068;28;20129;-54
2022/03/21 10:50:35;;;;;;;33.05;21.27;;;12.50;96.80;;;;;;5011739;28;20068;-54
2022/03/21 10:53:20;;;;;;;37.40;21.30;;;12.50;97.40;;;;;;5015997;28;20120;-54
2022/03/21 10:55:48;;;;;;;36.72;21.88;;;12.50;97.50;;;;;;5017264;28;20046;-55
2022/03/21 10:58:16;;;;;;;34.42;21.35;;;12.50;98.00;;;;;;5029234;28;20091;-54
2022/03/21 11:00:43;;;;;;;33.47;21.23;;;12.50;98.10;;;;;;5028100;28;20107;-55
2022/03/21 11:03:15;;;;;;;33.65;21.25;;;12.50;98.30;;;;;;5023208;28;20034;-54
2022/03/21 11:05:43;;;;;;;38.25;22.00;;;12.60;98.30;;;;;;5024193;28;20034;-55
2022/03/21 11:08:11;;;;;;;35.85;21.08;;;12.60;98.30;;;;;;5018108;28;20049;-55
2022/03/21 11:10:37;;;;;;;33.03;19.88;;;12.60;97.60;;;;;;5022331;28;20052;-56
2022/03/21 11:13:05;;;;;;;31.95;19.83;;;12.80;95.20;;;;;;5018039;28;20060;-56
2022/03/21 11:15:32;;;;;;;30.48;19.92;;;13.00;93.50;;;;;;5028240;28;20038;-56
2022/03/21 11:17:59;;;;;;;34.17;18.98;;;13.00;94.10;;;;;;5029688;28;20453;-56
2022/03/21 11:20:28;;;;;;;32.85;20.20;;;13.10;94.40;;;;;;5028968;28;20040;-56
2022/03/21 11:22:56;;;;;;;35.17;20.55;;;13.20;94.80;;;;;;5024227;28;20042;-55
2022/03/21 11:25:25;;;;;;;32.08;20.23;;;13.20;94.40;;;;;;5030277;28;20095;-56
2022/03/21 11:28:08;;;;;;;34.65;20.40;;;13.20;94.60;;;;;;5030340;28;20056;-56
2022/03/21 11:31:02;;;;;;;29.50;19.88;;;13.20;94.10;;;;;;5024455;28;20042;-56
2022/03/21 11:33:42;;;;;;;37.75;21.80;;;13.20;94.00;;;;;;5027058;28;20072;-56
2022/03/21 11:36:10;;;;;;;30.92;19.20;;;13.20;93.60;;;;;;5028773;28;20025;-57
2022/03/21 11:38:47;;;;;;;30.92;20.05;;;13.20;91.10;;;;;;5023265;28;20072;-55
2022/03/21 11:41:23;;;;;;;34.97;20.80;;;13.40;91.10;;;;;;5030990;28;20037;-55
2022/03/21 11:44:04;;;;;;;34.28;19.90;;;13.50;91.60;;;;;;5030538;28;20041;-56
2022/03/21 11:46:37;;;;;;;30.52;19.83;;;13.60;91.00;;;;;;5025756;28;20095;-56
2022/03/21 11:49:27;;;;;;;33.55;20.98;;;13.60;91.30;;;;;;5021339;28;20128;-56
2022/03/21 11:51:59;;;;;;;34.78;20.65;;;13.80;91.00;;;;;;5032470;28;20037;-55
2022/03/21 11:54:32;;;;;;;;;;;14.00;89.20;;;;;;5046812;28;20389;-53
2022/03/21 11:57:04;;;;;;;;;;;14.00;85.60;;;;;;5041472;28;19923;-55
2022/03/21 11:59:32;;;;;;;30.17;19.17;;;14.00;87.40;;;;;;5044019;28;19921;-55
2022/03/21 12:02:01;;;;;;;34.67;20.88;;;14.00;90.00;;;;;;5035571;28;20051;-54
2022/03/21 12:04:28;;;;;;;33.35;21.10;;;14.10;90.10;;;;;;5045117;28;20041;-56
2022/03/21 12:07:20;;;;;;;33.33;21.60;;;14.10;90.20;;;;;;5053989;28;20048;-53
2022/03/21 12:09:47;;;;;;;35.70;21.25;;;14.20;90.20;;;;;;5058070;28;20044;-54
2022/03/21 12:12:14;;;;;;;37.53;21.35;;;14.30;90.80;;;;;;5048124;28;20079;-52
2022/03/21 12:14:44;;;;;;;35.28;20.88;;;14.30;88.70;;;;;;5038692;28;20080;-53
2022/03/21 12:17:12;;;;;;;35.17;20.42;;;14.30;83.00;;;;;;5033786;28;20029;-54
2022/03/21 12:20:02;;;;;;;30.15;18.67;;;14.30;79.80;;;;;;5033707;28;20038;-53
2022/03/21 12:22:34;;;;;;;33.40;21.15;;;13.20;77.50;;;;;;5033274;28;20041;-55
2022/03/21 12:25:26;;;;;;;31.20;18.88;;;14.30;78.90;;;;;;5032540;28;20064;-54
2022/03/21 12:28:16;;;;;;;31.75;18.85;;;14.40;79.60;;;;;;5033325;28;20096;-54
2022/03/21 12:30:42;;;;;;;32.35;19.00;;;14.40;80.70;;;;;;5033315;28;20055;-55
2022/03/21 12:33:13;;;;;;;27.92;17.95;;;14.50;79.70;;;;;;5033755;28;20041;-54
2022/03/21 12:35:43;;;;;;;27.95;18.35;;;14.50;79.30;;;;;;5033540;28;20511;-54
2022/03/21 12:38:14;;;;;;;28.73;18.33;;;14.60;78.00;;;;;;5033061;28;20044;-54
2022/03/21 12:40:51;;;;;;;31.75;18.45;;;14.60;76.70;;;;;;5033085;28;20155;-54
2022/03/21 12:43:24;;;;;;;32.03;18.15;;;14.70;75.00;;;;;;5032009;28;20045;-52
2022/03/21 12:46:06;;;;;;;29.80;19.85;;;14.70;76.80;;;;;;5032002;28;20047;-54
2022/03/21 12:48:34;;;;;;;35.70;19.48;;;14.80;78.30;;;;;;5033501;28;20091;-55
2022/03/21 12:51:00;;;;;;;32.40;19.75;;;14.80;79.40;;;;;;5031785;28;20069;-54
2022/03/21 12:53:45;;;;;;;31.10;18.25;;;14.90;76.90;;;;;;5032081;28;20041;-57
2022/03/21 12:56:13;;;;;;;33.53;20.02;;;14.80;77.80;;;;;;5031862;28;20037;-55
2022/03/21 12:58:45;;;;;;;30.05;20.05;;;14.80;77.80;;;;;;5033248;28;20075;-54